sensor_id;sensor_type;location;lat;lon;timestamp;P1;durP1;ratioP1;P2;durP2;ratioP2
75377;SDS011;63959;51.960;5.886;2023-07-20T00:02:12;7.38;;;3.58;;
75377;SDS011;63959;51.960;5.886;2023-07-20T00:04:41;8.55;;;4.03;;
75377;SDS011;63959;51.960;5.886;2023-07-20T00:07:09;7.53;;;4.28;;
75377;SDS011;63959;51.960;5.886;2023-07-20T00:09:41;6.57;;;3.58;;
75377;SDS011;63959;51.960;5.886;2023-07-20T00:12:09;7.68;;;4.38;;
75377;SDS011;63959;51.960;5.886;2023-07-20T00:14:38;7.88;;;4.95;;
75377;SDS011;63959;51.960;5.886;2023-07-20T00:17:07;9.25;;;4.72;;
75377;SDS011;63959;51.960;5.886;2023-07-20T00:19:35;7.60;;;4.10;;
75377;SDS011;63959;51.960;5.886;2023-07-20T00:22:04;8.27;;;3.83;;
75377;SDS011;63959;51.960;5.886;2023-07-20T00:24:33;7.50;;;4.10;;
75377;SDS011;63959;51.960;5.886;2023-07-20T00:27:04;10.45;;;6.10;;
75377;SDS011;63959;51.960;5.886;2023-07-20T00:29:33;8.60;;;4.72;;
75377;SDS011;63959;51.960;5.886;2023-07-20T00:32:02;7.65;;;4.05;;
75377;SDS011;63959;51.960;5.886;2023-07-20T00:34:32;8.90;;;4.00;;
75377;SDS011;63959;51.960;5.886;2023-07-20T00:37:01;10.25;;;5.63;;
75377;SDS011;63959;51.960;5.886;2023-07-20T00:39:30;7.50;;;3.92;;
75377;SDS011;63959;51.960;5.886;2023-07-20T00:41:58;7.72;;;4.40;;
75377;SDS011;63959;51.960;5.886;2023-07-20T00:44:30;8.82;;;5.22;;
75377;SDS011;63959;51.960;5.886;2023-07-20T00:46:59;6.97;;;4.05;;
75377;SDS011;63959;51.960;5.886;2023-07-20T00:49:28;6.22;;;3.60;;
75377;SDS011;63959;51.960;5.886;2023-07-20T00:51:57;9.27;;;3.58;;
75377;SDS011;63959;51.960;5.886;2023-07-20T00:54:26;9.23;;;5.18;;
75377;SDS011;63959;51.960;5.886;2023-07-20T00:56:54;11.63;;;6.47;;
75377;SDS011;63959;51.960;5.886;2023-07-20T00:59:23;11.77;;;4.93;;
75377;SDS011;63959;51.960;5.886;2023-07-20T01:01:55;9.30;;;4.45;;
75377;SDS011;63959;51.960;5.886;2023-07-20T01:04:23;6.55;;;3.53;;
75377;SDS011;63959;51.960;5.886;2023-07-20T01:06:53;9.38;;;5.22;;
75377;SDS011;63959;51.960;5.886;2023-07-20T01:09:26;8.77;;;4.47;;
75377;SDS011;63959;51.960;5.886;2023-07-20T01:11:57;10.10;;;5.80;;
75377;SDS011;63959;51.960;5.886;2023-07-20T01:14:28;9.38;;;4.32;;
75377;SDS011;63959;51.960;5.886;2023-07-20T01:17:01;7.78;;;3.70;;
75377;SDS011;63959;51.960;5.886;2023-07-20T01:19:29;6.70;;;3.80;;
75377;SDS011;63959;51.960;5.886;2023-07-20T01:22:00;9.57;;;5.10;;
75377;SDS011;63959;51.960;5.886;2023-07-20T01:27:23;8.10;;;3.60;;
75377;SDS011;63959;51.960;5.886;2023-07-20T01:29:57;6.85;;;3.78;;
75377;SDS011;63959;51.960;5.886;2023-07-20T01:32:34;9.65;;;4.97;;
75377;SDS011;63959;51.960;5.886;2023-07-20T01:35:05;6.78;;;3.28;;
75377;SDS011;63959;51.960;5.886;2023-07-20T01:37:34;6.75;;;3.85;;
75377;SDS011;63959;51.960;5.886;2023-07-20T01:40:03;10.98;;;4.90;;
75377;SDS011;63959;51.960;5.886;2023-07-20T01:42:32;6.63;;;3.60;;
75377;SDS011;63959;51.960;5.886;2023-07-20T01:45:01;8.02;;;3.67;;
75377;SDS011;63959;51.960;5.886;2023-07-20T01:47:30;7.45;;;4.45;;
75377;SDS011;63959;51.960;5.886;2023-07-20T01:50:01;9.80;;;4.22;;
75377;SDS011;63959;51.960;5.886;2023-07-20T01:52:30;7.15;;;4.50;;
75377;SDS011;63959;51.960;5.886;2023-07-20T01:54:59;7.30;;;3.50;;
75377;SDS011;63959;51.960;5.886;2023-07-20T01:57:30;7.22;;;3.42;;
75377;SDS011;63959;51.960;5.886;2023-07-20T01:59:58;7.22;;;4.43;;
75377;SDS011;63959;51.960;5.886;2023-07-20T02:02:27;8.98;;;5.43;;
75377;SDS011;63959;51.960;5.886;2023-07-20T02:04:56;5.53;;;3.00;;
75377;SDS011;63959;51.960;5.886;2023-07-20T02:07:27;7.30;;;3.38;;
75377;SDS011;63959;51.960;5.886;2023-07-20T02:09:56;6.13;;;3.47;;
75377;SDS011;63959;51.960;5.886;2023-07-20T02:12:25;6.75;;;3.20;;
75377;SDS011;63959;51.960;5.886;2023-07-20T02:14:54;7.82;;;5.10;;
75377;SDS011;63959;51.960;5.886;2023-07-20T02:17:22;8.05;;;4.88;;
75377;SDS011;63959;51.960;5.886;2023-07-20T02:19:52;6.28;;;3.88;;
75377;SDS011;63959;51.960;5.886;2023-07-20T02:22:21;7.15;;;3.85;;
75377;SDS011;63959;51.960;5.886;2023-07-20T02:24:52;6.55;;;3.30;;
75377;SDS011;63959;51.960;5.886;2023-07-20T02:27:21;10.23;;;4.57;;
75377;SDS011;63959;51.960;5.886;2023-07-20T02:29:50;8.35;;;4.72;;
75377;SDS011;63959;51.960;5.886;2023-07-20T02:32:18;7.05;;;4.70;;
75377;SDS011;63959;51.960;5.886;2023-07-20T02:34:48;8.88;;;4.82;;
75377;SDS011;63959;51.960;5.886;2023-07-20T02:37:16;6.28;;;3.17;;
75377;SDS011;63959;51.960;5.886;2023-07-20T02:39:45;6.10;;;2.50;;
75377;SDS011;63959;51.960;5.886;2023-07-20T02:42:17;7.93;;;4.00;;
75377;SDS011;63959;51.960;5.886;2023-07-20T02:44:48;6.53;;;3.78;;
75377;SDS011;63959;51.960;5.886;2023-07-20T02:47:17;7.97;;;4.22;;
75377;SDS011;63959;51.960;5.886;2023-07-20T02:49:55;6.22;;;3.97;;
75377;SDS011;63959;51.960;5.886;2023-07-20T02:52:23;5.80;;;3.50;;
75377;SDS011;63959;51.960;5.886;2023-07-20T02:54:52;6.43;;;2.67;;
75377;SDS011;63959;51.960;5.886;2023-07-20T02:57:23;6.07;;;3.53;;
75377;SDS011;63959;51.960;5.886;2023-07-20T02:59:52;6.53;;;3.67;;
75377;SDS011;63959;51.960;5.886;2023-07-20T03:02:22;5.85;;;3.42;;
75377;SDS011;63959;51.960;5.886;2023-07-20T03:04:50;4.65;;;2.53;;
75377;SDS011;63959;51.960;5.886;2023-07-20T03:07:19;6.40;;;3.03;;
75377;SDS011;63959;51.960;5.886;2023-07-20T03:09:48;5.88;;;3.30;;
75377;SDS011;63959;51.960;5.886;2023-07-20T03:12:17;5.30;;;2.80;;
75377;SDS011;63959;51.960;5.886;2023-07-20T03:14:49;6.90;;;3.30;;
75377;SDS011;63959;51.960;5.886;2023-07-20T03:17:18;4.78;;;2.83;;
75377;SDS011;63959;51.960;5.886;2023-07-20T03:19:47;6.05;;;2.95;;
75377;SDS011;63959;51.960;5.886;2023-07-20T03:22:15;5.93;;;3.05;;
75377;SDS011;63959;51.960;5.886;2023-07-20T03:24:44;6.07;;;2.90;;
75377;SDS011;63959;51.960;5.886;2023-07-20T03:27:13;4.90;;;2.83;;
75377;SDS011;63959;51.960;5.886;2023-07-20T03:29:42;6.05;;;3.53;;
75377;SDS011;63959;51.960;5.886;2023-07-20T03:32:13;6.07;;;2.45;;
75377;SDS011;63959;51.960;5.886;2023-07-20T03:34:42;6.47;;;2.80;;
75377;SDS011;63959;51.960;5.886;2023-07-20T03:37:13;6.47;;;3.38;;
75377;SDS011;63959;51.960;5.886;2023-07-20T03:39:42;6.38;;;3.75;;
75377;SDS011;63959;51.960;5.886;2023-07-20T03:42:11;5.57;;;3.20;;
75377;SDS011;63959;51.960;5.886;2023-07-20T03:44:40;6.93;;;3.05;;
75377;SDS011;63959;51.960;5.886;2023-07-20T03:47:08;5.65;;;3.13;;
75377;SDS011;63959;51.960;5.886;2023-07-20T03:49:41;5.63;;;3.30;;
75377;SDS011;63959;51.960;5.886;2023-07-20T03:52:09;4.57;;;2.15;;
75377;SDS011;63959;51.960;5.886;2023-07-20T03:54:38;4.78;;;1.80;;
75377;SDS011;63959;51.960;5.886;2023-07-20T03:57:07;5.40;;;2.60;;
75377;SDS011;63959;51.960;5.886;2023-07-20T03:59:36;6.60;;;2.85;;
75377;SDS011;63959;51.960;5.886;2023-07-20T04:02:05;4.95;;;2.80;;
75377;SDS011;63959;51.960;5.886;2023-07-20T04:04:34;4.85;;;2.95;;
75377;SDS011;63959;51.960;5.886;2023-07-20T04:07:05;4.55;;;2.67;;
75377;SDS011;63959;51.960;5.886;2023-07-20T04:09:35;4.82;;;2.40;;
75377;SDS011;63959;51.960;5.886;2023-07-20T04:12:04;5.22;;;2.63;;
75377;SDS011;63959;51.960;5.886;2023-07-20T04:14:33;5.22;;;2.47;;
75377;SDS011;63959;51.960;5.886;2023-07-20T04:17:01;6.63;;;3.45;;
75377;SDS011;63959;51.960;5.886;2023-07-20T04:19:30;5.97;;;2.97;;
75377;SDS011;63959;51.960;5.886;2023-07-20T04:21:59;6.05;;;3.33;;
75377;SDS011;63959;51.960;5.886;2023-07-20T04:24:32;5.82;;;3.17;;
75377;SDS011;63959;51.960;5.886;2023-07-20T04:27:00;5.70;;;2.33;;
75377;SDS011;63959;51.960;5.886;2023-07-20T04:29:29;5.82;;;3.25;;
75377;SDS011;63959;51.960;5.886;2023-07-20T04:31:58;6.53;;;2.90;;
75377;SDS011;63959;51.960;5.886;2023-07-20T04:34:26;5.65;;;3.30;;
75377;SDS011;63959;51.960;5.886;2023-07-20T04:36:55;8.00;;;3.58;;
75377;SDS011;63959;51.960;5.886;2023-07-20T04:39:26;6.90;;;3.88;;
75377;SDS011;63959;51.960;5.886;2023-07-20T04:41:57;7.13;;;4.10;;
75377;SDS011;63959;51.960;5.886;2023-07-20T04:44:26;6.95;;;3.72;;
75377;SDS011;63959;51.960;5.886;2023-07-20T04:46:55;6.40;;;3.08;;
75377;SDS011;63959;51.960;5.886;2023-07-20T04:49:23;6.78;;;4.32;;
75377;SDS011;63959;51.960;5.886;2023-07-20T04:51:53;7.65;;;4.85;;
75377;SDS011;63959;51.960;5.886;2023-07-20T04:54:21;6.28;;;3.65;;
75377;SDS011;63959;51.960;5.886;2023-07-20T04:56:53;4.93;;;2.60;;
75377;SDS011;63959;51.960;5.886;2023-07-20T04:59:25;6.85;;;4.22;;
75377;SDS011;63959;51.960;5.886;2023-07-20T05:01:54;6.30;;;3.92;;
75377;SDS011;63959;51.960;5.886;2023-07-20T05:04:22;6.93;;;3.95;;
75377;SDS011;63959;51.960;5.886;2023-07-20T05:06:51;6.47;;;3.88;;
75377;SDS011;63959;51.960;5.886;2023-07-20T05:09:20;5.45;;;3.60;;
75377;SDS011;63959;51.960;5.886;2023-07-20T05:11:49;6.22;;;3.58;;
75377;SDS011;63959;51.960;5.886;2023-07-20T05:14:17;6.38;;;3.92;;
75377;SDS011;63959;51.960;5.886;2023-07-20T05:16:51;4.82;;;2.60;;
75377;SDS011;63959;51.960;5.886;2023-07-20T05:19:19;5.72;;;3.50;;
75377;SDS011;63959;51.960;5.886;2023-07-20T05:21:48;6.72;;;4.00;;
75377;SDS011;63959;51.960;5.886;2023-07-20T05:24:17;5.85;;;3.88;;
75377;SDS011;63959;51.960;5.886;2023-07-20T05:26:47;5.43;;;3.38;;
75377;SDS011;63959;51.960;5.886;2023-07-20T05:29:16;6.45;;;3.30;;
75377;SDS011;63959;51.960;5.886;2023-07-20T05:31:45;4.82;;;2.70;;
75377;SDS011;63959;51.960;5.886;2023-07-20T05:34:16;4.63;;;2.60;;
75377;SDS011;63959;51.960;5.886;2023-07-20T05:36:45;5.60;;;3.28;;
75377;SDS011;63959;51.960;5.886;2023-07-20T05:39:13;4.45;;;2.35;;
75377;SDS011;63959;51.960;5.886;2023-07-20T05:41:42;4.82;;;2.85;;
75377;SDS011;63959;51.960;5.886;2023-07-20T05:44:11;7.25;;;3.28;;
75377;SDS011;63959;51.960;5.886;2023-07-20T05:46:40;5.30;;;2.95;;
75377;SDS011;63959;51.960;5.886;2023-07-20T05:49:09;7.28;;;3.10;;
75377;SDS011;63959;51.960;5.886;2023-07-20T05:51:40;4.50;;;2.05;;
75377;SDS011;63959;51.960;5.886;2023-07-20T05:54:09;5.57;;;2.78;;
75377;SDS011;63959;51.960;5.886;2023-07-20T05:56:38;3.83;;;2.20;;
75377;SDS011;63959;51.960;5.886;2023-07-20T05:59:07;4.82;;;2.30;;
75377;SDS011;63959;51.960;5.886;2023-07-20T06:01:35;4.15;;;1.42;;
75377;SDS011;63959;51.960;5.886;2023-07-20T06:04:04;3.85;;;1.83;;
75377;SDS011;63959;51.960;5.886;2023-07-20T06:06:33;4.65;;;1.85;;
75377;SDS011;63959;51.960;5.886;2023-07-20T06:09:04;3.45;;;1.27;;
75377;SDS011;63959;51.960;5.886;2023-07-20T06:11:35;2.47;;;1.17;;
75377;SDS011;63959;51.960;5.886;2023-07-20T06:14:04;4.32;;;1.70;;
75377;SDS011;63959;51.960;5.886;2023-07-20T06:16:32;3.83;;;1.23;;
75377;SDS011;63959;51.960;5.886;2023-07-20T06:19:01;4.00;;;1.30;;
75377;SDS011;63959;51.960;5.886;2023-07-20T06:21:30;3.22;;;1.38;;
75377;SDS011;63959;51.960;5.886;2023-07-20T06:23:59;3.22;;;1.40;;
75377;SDS011;63959;51.960;5.886;2023-07-20T06:26:31;3.88;;;1.20;;
75377;SDS011;63959;51.960;5.886;2023-07-20T06:29:04;3.70;;;1.50;;
75377;SDS011;63959;51.960;5.886;2023-07-20T06:31:33;3.22;;;1.23;;
75377;SDS011;63959;51.960;5.886;2023-07-20T06:34:02;3.08;;;1.17;;
75377;SDS011;63959;51.960;5.886;2023-07-20T06:36:31;2.72;;;1.40;;
75377;SDS011;63959;51.960;5.886;2023-07-20T06:38:59;2.55;;;1.20;;
75377;SDS011;63959;51.960;5.886;2023-07-20T06:41:31;3.05;;;1.10;;
75377;SDS011;63959;51.960;5.886;2023-07-20T06:43:59;2.88;;;1.20;;
75377;SDS011;63959;51.960;5.886;2023-07-20T06:46:28;2.85;;;1.00;;
75377;SDS011;63959;51.960;5.886;2023-07-20T06:48:57;1.52;;;0.93;;
75377;SDS011;63959;51.960;5.886;2023-07-20T06:51:26;2.40;;;0.90;;
75377;SDS011;63959;51.960;5.886;2023-07-20T06:53:55;1.67;;;0.80;;
75377;SDS011;63959;51.960;5.886;2023-07-20T06:56:24;3.28;;;1.77;;
75377;SDS011;63959;51.960;5.886;2023-07-20T06:58:55;1.77;;;0.85;;
75377;SDS011;63959;51.960;5.886;2023-07-20T07:01:23;2.33;;;0.90;;
75377;SDS011;63959;51.960;5.886;2023-07-20T07:03:52;2.10;;;0.90;;
75377;SDS011;63959;51.960;5.886;2023-07-20T07:06:21;1.90;;;0.88;;
75377;SDS011;63959;51.960;5.886;2023-07-20T07:08:50;2.28;;;0.80;;
75377;SDS011;63959;51.960;5.886;2023-07-20T07:11:18;2.08;;;1.00;;
75377;SDS011;63959;51.960;5.886;2023-07-20T07:13:47;2.25;;;0.95;;
75377;SDS011;63959;51.960;5.886;2023-07-20T07:16:19;1.80;;;0.75;;
75377;SDS011;63959;51.960;5.886;2023-07-20T07:18:49;2.05;;;0.70;;
75377;SDS011;63959;51.960;5.886;2023-07-20T07:21:18;1.13;;;0.77;;
75377;SDS011;63959;51.960;5.886;2023-07-20T07:23:51;2.42;;;0.93;;
75377;SDS011;63959;51.960;5.886;2023-07-20T07:26:23;3.15;;;0.80;;
75377;SDS011;63959;51.960;5.886;2023-07-20T07:28:51;2.55;;;0.90;;
75377;SDS011;63959;51.960;5.886;2023-07-20T07:31:22;0.90;;;0.73;;
75377;SDS011;63959;51.960;5.886;2023-07-20T07:33:53;1.77;;;0.80;;
75377;SDS011;63959;51.960;5.886;2023-07-20T07:36:21;3.33;;;1.15;;
75377;SDS011;63959;51.960;5.886;2023-07-20T07:38:50;2.88;;;0.88;;
75377;SDS011;63959;51.960;5.886;2023-07-20T07:41:19;1.30;;;0.80;;
75377;SDS011;63959;51.960;5.886;2023-07-20T07:43:48;2.15;;;1.00;;
75377;SDS011;63959;51.960;5.886;2023-07-20T07:46:16;2.33;;;1.02;;
75377;SDS011;63959;51.960;5.886;2023-07-20T07:48:48;2.45;;;1.10;;
75377;SDS011;63959;51.960;5.886;2023-07-20T07:51:16;2.95;;;0.80;;
75377;SDS011;63959;51.960;5.886;2023-07-20T07:53:45;2.05;;;0.90;;
75377;SDS011;63959;51.960;5.886;2023-07-20T07:56:14;2.95;;;0.90;;
75377;SDS011;63959;51.960;5.886;2023-07-20T07:58:47;3.00;;;1.00;;
75377;SDS011;63959;51.960;5.886;2023-07-20T08:01:17;1.15;;;0.80;;
75377;SDS011;63959;51.960;5.886;2023-07-20T08:03:48;1.42;;;0.80;;
75377;SDS011;63959;51.960;5.886;2023-07-20T08:06:17;1.65;;;0.80;;
75377;SDS011;63959;51.960;5.886;2023-07-20T08:08:46;2.30;;;0.80;;
75377;SDS011;63959;51.960;5.886;2023-07-20T08:11:14;1.20;;;0.70;;
75377;SDS011;63959;51.960;5.886;2023-07-20T08:13:43;2.55;;;0.90;;
75377;SDS011;63959;51.960;5.886;2023-07-20T08:16:12;4.10;;;0.95;;
75377;SDS011;63959;51.960;5.886;2023-07-20T08:18:40;1.63;;;0.82;;
75377;SDS011;63959;51.960;5.886;2023-07-20T08:21:12;1.65;;;0.80;;
75377;SDS011;63959;51.960;5.886;2023-07-20T08:23:40;1.83;;;0.82;;
75377;SDS011;63959;51.960;5.886;2023-07-20T08:26:09;1.33;;;0.70;;
75377;SDS011;63959;51.960;5.886;2023-07-20T08:28:40;1.33;;;0.60;;
75377;SDS011;63959;51.960;5.886;2023-07-20T08:31:08;1.15;;;0.70;;
75377;SDS011;63959;51.960;5.886;2023-07-20T08:33:37;1.45;;;0.90;;
75377;SDS011;63959;51.960;5.886;2023-07-20T08:36:06;1.90;;;0.70;;
75377;SDS011;63959;51.960;5.886;2023-07-20T08:38:37;1.42;;;0.60;;
75377;SDS011;63959;51.960;5.886;2023-07-20T08:41:06;2.38;;;0.90;;
75377;SDS011;63959;51.960;5.886;2023-07-20T08:43:34;2.05;;;0.70;;
75377;SDS011;63959;51.960;5.886;2023-07-20T08:46:05;1.80;;;0.80;;
75377;SDS011;63959;51.960;5.886;2023-07-20T08:48:34;1.73;;;0.80;;
75377;SDS011;63959;51.960;5.886;2023-07-20T08:51:03;3.00;;;1.08;;
75377;SDS011;63959;51.960;5.886;2023-07-20T08:53:32;1.83;;;0.80;;
75377;SDS011;63959;51.960;5.886;2023-07-20T08:56:04;2.53;;;0.85;;
75377;SDS011;63959;51.960;5.886;2023-07-20T08:58:32;2.80;;;1.10;;
75377;SDS011;63959;51.960;5.886;2023-07-20T09:01:02;2.65;;;1.20;;
75377;SDS011;63959;51.960;5.886;2023-07-20T09:03:31;1.98;;;0.80;;
75377;SDS011;63959;51.960;5.886;2023-07-20T09:06:00;3.28;;;0.80;;
75377;SDS011;63959;51.960;5.886;2023-07-20T09:08:28;1.65;;;0.85;;
75377;SDS011;63959;51.960;5.886;2023-07-20T09:10:57;1.33;;;0.80;;
75377;SDS011;63959;51.960;5.886;2023-07-20T09:13:28;1.50;;;0.70;;
75377;SDS011;63959;51.960;5.886;2023-07-20T09:15:57;1.88;;;0.82;;
75377;SDS011;63959;51.960;5.886;2023-07-20T09:18:27;2.08;;;0.85;;
75377;SDS011;63959;51.960;5.886;2023-07-20T09:20:57;1.88;;;0.70;;
75377;SDS011;63959;51.960;5.886;2023-07-20T09:23:30;2.63;;;1.00;;
75377;SDS011;63959;51.960;5.886;2023-07-20T09:25:59;2.03;;;1.00;;
75377;SDS011;63959;51.960;5.886;2023-07-20T09:28:30;1.08;;;0.65;;
75377;SDS011;63959;51.960;5.886;2023-07-20T09:31:15;2.40;;;0.80;;
75377;SDS011;63959;51.960;5.886;2023-07-20T09:33:44;1.50;;;0.80;;
75377;SDS011;63959;51.960;5.886;2023-07-20T09:36:13;1.95;;;0.80;;
75377;SDS011;63959;51.960;5.886;2023-07-20T09:38:41;2.50;;;1.02;;
75377;SDS011;63959;51.960;5.886;2023-07-20T09:41:12;2.38;;;0.88;;
75377;SDS011;63959;51.960;5.886;2023-07-20T09:43:44;2.80;;;1.10;;
75377;SDS011;63959;51.960;5.886;2023-07-20T09:46:13;2.60;;;1.05;;
75377;SDS011;63959;51.960;5.886;2023-07-20T09:48:48;2.67;;;1.00;;
75377;SDS011;63959;51.960;5.886;2023-07-20T09:51:20;1.88;;;0.70;;
75377;SDS011;63959;51.960;5.886;2023-07-20T09:53:49;3.10;;;1.08;;
75377;SDS011;63959;51.960;5.886;2023-07-20T09:56:20;3.40;;;0.98;;
75377;SDS011;63959;51.960;5.886;2023-07-20T09:58:52;1.88;;;0.90;;
75377;SDS011;63959;51.960;5.886;2023-07-20T10:01:21;2.67;;;1.20;;
75377;SDS011;63959;51.960;5.886;2023-07-20T10:03:51;4.03;;;1.42;;
75377;SDS011;63959;51.960;5.886;2023-07-20T10:06:24;3.42;;;1.17;;
75377;SDS011;63959;51.960;5.886;2023-07-20T10:08:53;3.03;;;1.15;;
75377;SDS011;63959;51.960;5.886;2023-07-20T10:11:24;2.90;;;1.17;;
75377;SDS011;63959;51.960;5.886;2023-07-20T10:14:00;3.28;;;1.20;;
75377;SDS011;63959;51.960;5.886;2023-07-20T10:16:33;2.05;;;0.73;;
75377;SDS011;63959;51.960;5.886;2023-07-20T10:19:03;1.95;;;0.80;;
75377;SDS011;63959;51.960;5.886;2023-07-20T10:21:33;3.15;;;1.02;;
75377;SDS011;63959;51.960;5.886;2023-07-20T10:24:04;3.45;;;1.00;;
75377;SDS011;63959;51.960;5.886;2023-07-20T10:26:33;1.92;;;0.80;;
75377;SDS011;63959;51.960;5.886;2023-07-20T10:29:05;1.25;;;0.70;;
75377;SDS011;63959;51.960;5.886;2023-07-20T10:31:34;2.92;;;1.00;;
75377;SDS011;63959;51.960;5.886;2023-07-20T10:34:03;1.92;;;0.82;;
75377;SDS011;63959;51.960;5.886;2023-07-20T10:36:32;1.75;;;0.90;;
75377;SDS011;63959;51.960;5.886;2023-07-20T10:39:21;2.28;;;0.90;;
75377;SDS011;63959;51.960;5.886;2023-07-20T10:41:53;2.30;;;0.90;;
75377;SDS011;63959;51.960;5.886;2023-07-20T10:44:30;2.47;;;1.20;;
75377;SDS011;63959;51.960;5.886;2023-07-20T10:46:59;3.75;;;1.20;;
75377;SDS011;63959;51.960;5.886;2023-07-20T10:49:28;1.45;;;0.80;;
75377;SDS011;63959;51.960;5.886;2023-07-20T10:51:59;2.38;;;1.15;;
75377;SDS011;63959;51.960;5.886;2023-07-20T10:54:35;2.72;;;1.13;;
75377;SDS011;63959;51.960;5.886;2023-07-20T10:57:21;3.35;;;0.82;;
75377;SDS011;63959;51.960;5.886;2023-07-20T10:59:53;2.05;;;0.98;;
75377;SDS011;63959;51.960;5.886;2023-07-20T11:02:41;2.05;;;1.02;;
75377;SDS011;63959;51.960;5.886;2023-07-20T11:07:53;2.92;;;1.08;;
75377;SDS011;63959;51.960;5.886;2023-07-20T11:10:22;3.17;;;1.33;;
75377;SDS011;63959;51.960;5.886;2023-07-20T11:15:47;2.10;;;0.80;;
75377;SDS011;63959;51.960;5.886;2023-07-20T11:18:15;3.20;;;0.90;;
75377;SDS011;63959;51.960;5.886;2023-07-20T11:20:49;2.22;;;0.80;;
75377;SDS011;63959;51.960;5.886;2023-07-20T11:23:19;2.60;;;0.95;;
75377;SDS011;63959;51.960;5.886;2023-07-20T11:25:48;2.00;;;1.15;;
75377;SDS011;63959;51.960;5.886;2023-07-20T11:28:16;2.00;;;0.80;;
75377;SDS011;63959;51.960;5.886;2023-07-20T11:30:49;3.00;;;0.90;;
75377;SDS011;63959;51.960;5.886;2023-07-20T11:33:18;2.72;;;0.95;;
75377;SDS011;63959;51.960;5.886;2023-07-20T11:35:48;2.47;;;0.95;;
75377;SDS011;63959;51.960;5.886;2023-07-20T11:38:18;2.45;;;1.00;;
75377;SDS011;63959;51.960;5.886;2023-07-20T11:40:47;1.50;;;0.70;;
75377;SDS011;63959;51.960;5.886;2023-07-20T11:43:16;2.45;;;1.00;;
75377;SDS011;63959;51.960;5.886;2023-07-20T11:45:49;1.02;;;0.68;;
75377;SDS011;63959;51.960;5.886;2023-07-20T11:48:17;2.15;;;0.60;;
75377;SDS011;63959;51.960;5.886;2023-07-20T11:50:46;2.28;;;0.70;;
75377;SDS011;63959;51.960;5.886;2023-07-20T11:53:15;2.50;;;0.80;;
75377;SDS011;63959;51.960;5.886;2023-07-20T11:55:44;1.80;;;0.73;;
75377;SDS011;63959;51.960;5.886;2023-07-20T11:58:13;1.48;;;0.80;;
75377;SDS011;63959;51.960;5.886;2023-07-20T12:00:43;2.78;;;0.98;;
75377;SDS011;63959;51.960;5.886;2023-07-20T12:03:15;2.35;;;1.05;;
75377;SDS011;63959;51.960;5.886;2023-07-20T12:05:43;1.70;;;0.88;;
75377;SDS011;63959;51.960;5.886;2023-07-20T12:08:12;3.00;;;1.02;;
75377;SDS011;63959;51.960;5.886;2023-07-20T12:10:41;2.50;;;1.00;;
75377;SDS011;63959;51.960;5.886;2023-07-20T12:13:12;2.47;;;1.17;;
75377;SDS011;63959;51.960;5.886;2023-07-20T12:15:41;2.53;;;0.93;;
75377;SDS011;63959;51.960;5.886;2023-07-20T12:18:09;2.55;;;1.20;;
75377;SDS011;63959;51.960;5.886;2023-07-20T12:20:41;2.50;;;1.08;;
75377;SDS011;63959;51.960;5.886;2023-07-20T12:23:11;3.63;;;1.13;;
75377;SDS011;63959;51.960;5.886;2023-07-20T12:25:40;5.43;;;1.75;;
75377;SDS011;63959;51.960;5.886;2023-07-20T12:28:10;2.78;;;1.30;;
75377;SDS011;63959;51.960;5.886;2023-07-20T12:30:39;2.05;;;0.82;;
75377;SDS011;63959;51.960;5.886;2023-07-20T12:33:08;2.78;;;1.20;;
75377;SDS011;63959;51.960;5.886;2023-07-20T12:35:37;1.63;;;0.90;;
75377;SDS011;63959;51.960;5.886;2023-07-20T12:38:08;3.65;;;1.30;;
75377;SDS011;63959;51.960;5.886;2023-07-20T12:40:37;2.83;;;1.00;;
75377;SDS011;63959;51.960;5.886;2023-07-20T12:43:06;2.75;;;1.10;;
75377;SDS011;63959;51.960;5.886;2023-07-20T12:45:34;2.28;;;1.00;;
75377;SDS011;63959;51.960;5.886;2023-07-20T12:48:03;2.63;;;0.90;;
75377;SDS011;63959;51.960;5.886;2023-07-20T12:50:32;1.13;;;0.63;;
75377;SDS011;63959;51.960;5.886;2023-07-20T12:53:02;1.65;;;0.75;;
75377;SDS011;63959;51.960;5.886;2023-07-20T12:55:38;2.33;;;0.80;;
75377;SDS011;63959;51.960;5.886;2023-07-20T12:58:08;2.35;;;0.73;;
75377;SDS011;63959;51.960;5.886;2023-07-20T13:00:36;3.03;;;0.90;;
75377;SDS011;63959;51.960;5.886;2023-07-20T13:03:05;1.48;;;0.80;;
75377;SDS011;63959;51.960;5.886;2023-07-20T13:05:34;3.78;;;0.90;;
75377;SDS011;63959;51.960;5.886;2023-07-20T13:08:03;2.05;;;0.90;;
75377;SDS011;63959;51.960;5.886;2023-07-20T13:10:35;1.58;;;0.80;;
75377;SDS011;63959;51.960;5.886;2023-07-20T13:13:04;2.35;;;0.95;;
75377;SDS011;63959;51.960;5.886;2023-07-20T13:15:40;2.38;;;0.82;;
75377;SDS011;63959;51.960;5.886;2023-07-20T13:18:09;1.80;;;0.82;;
75377;SDS011;63959;51.960;5.886;2023-07-20T13:20:37;2.15;;;1.10;;
75377;SDS011;63959;51.960;5.886;2023-07-20T13:23:06;1.95;;;0.80;;
75377;SDS011;63959;51.960;5.886;2023-07-20T13:25:37;1.92;;;0.80;;
75377;SDS011;63959;51.960;5.886;2023-07-20T13:28:07;1.65;;;0.70;;
75377;SDS011;63959;51.960;5.886;2023-07-20T13:30:35;1.48;;;0.80;;
75377;SDS011;63959;51.960;5.886;2023-07-20T13:33:04;2.25;;;0.70;;
75377;SDS011;63959;51.960;5.886;2023-07-20T13:35:33;1.38;;;0.80;;
75377;SDS011;63959;51.960;5.886;2023-07-20T13:38:01;1.50;;;0.70;;
75377;SDS011;63959;51.960;5.886;2023-07-20T13:40:30;0.95;;;0.55;;
75377;SDS011;63959;51.960;5.886;2023-07-20T13:43:01;1.00;;;0.55;;
75377;SDS011;63959;51.960;5.886;2023-07-20T13:45:30;1.15;;;0.60;;
75377;SDS011;63959;51.960;5.886;2023-07-20T13:47:58;1.63;;;0.88;;
75377;SDS011;63959;51.960;5.886;2023-07-20T13:50:27;1.55;;;0.70;;
75377;SDS011;63959;51.960;5.886;2023-07-20T13:52:56;1.27;;;0.80;;
75377;SDS011;63959;51.960;5.886;2023-07-20T13:55:25;1.55;;;0.63;;
75377;SDS011;63959;51.960;5.886;2023-07-20T13:57:54;2.05;;;0.73;;
75377;SDS011;63959;51.960;5.886;2023-07-20T14:00:25;1.17;;;0.60;;
75377;SDS011;63959;51.960;5.886;2023-07-20T14:02:58;2.28;;;0.70;;
75377;SDS011;63959;51.960;5.886;2023-07-20T14:05:27;1.15;;;0.70;;
75377;SDS011;63959;51.960;5.886;2023-07-20T14:07:55;1.10;;;0.70;;
75377;SDS011;63959;51.960;5.886;2023-07-20T14:10:24;2.00;;;0.70;;
75377;SDS011;63959;51.960;5.886;2023-07-20T14:12:53;1.45;;;0.80;;
75377;SDS011;63959;51.960;5.886;2023-07-20T14:15:21;1.10;;;0.60;;
75377;SDS011;63959;51.960;5.886;2023-07-20T14:17:52;2.92;;;0.90;;
75377;SDS011;63959;51.960;5.886;2023-07-20T14:20:21;2.10;;;0.93;;
75377;SDS011;63959;51.960;5.886;2023-07-20T14:22:50;2.20;;;0.70;;
75377;SDS011;63959;51.960;5.886;2023-07-20T14:25:18;1.75;;;0.80;;
75377;SDS011;63959;51.960;5.886;2023-07-20T14:27:47;1.83;;;0.93;;
75377;SDS011;63959;51.960;5.886;2023-07-20T14:30:16;2.53;;;1.00;;
75377;SDS011;63959;51.960;5.886;2023-07-20T14:32:44;2.88;;;1.00;;
75377;SDS011;63959;51.960;5.886;2023-07-20T14:35:16;1.85;;;0.90;;
75377;SDS011;63959;51.960;5.886;2023-07-20T14:37:45;1.67;;;0.80;;
75377;SDS011;63959;51.960;5.886;2023-07-20T14:40:16;2.15;;;0.90;;
75377;SDS011;63959;51.960;5.886;2023-07-20T14:42:46;4.07;;;0.80;;
75377;SDS011;63959;51.960;5.886;2023-07-20T14:45:14;0.93;;;0.70;;
75377;SDS011;63959;51.960;5.886;2023-07-20T14:47:43;1.23;;;0.77;;
75377;SDS011;63959;51.960;5.886;2023-07-20T14:50:17;2.97;;;1.10;;
75377;SDS011;63959;51.960;5.886;2023-07-20T14:52:46;1.73;;;0.70;;
75377;SDS011;63959;51.960;5.886;2023-07-20T14:55:14;1.52;;;0.77;;
75377;SDS011;63959;51.960;5.886;2023-07-20T14:57:44;1.33;;;0.73;;
75377;SDS011;63959;51.960;5.886;2023-07-20T15:00:14;2.15;;;0.88;;
75377;SDS011;63959;51.960;5.886;2023-07-20T15:02:43;2.60;;;0.80;;
75377;SDS011;63959;51.960;5.886;2023-07-20T15:05:12;3.47;;;0.80;;
75377;SDS011;63959;51.960;5.886;2023-07-20T15:07:51;1.90;;;0.90;;
75377;SDS011;63959;51.960;5.886;2023-07-20T15:10:19;2.80;;;1.00;;
75377;SDS011;63959;51.960;5.886;2023-07-20T15:12:48;2.00;;;0.95;;